createdAt,value
2024-02-20T00:00:34.400Z,26.60
2024-02-20T00:01:36.177Z,27.98
2024-02-20T00:02:37.854Z,26.30
2024-02-20T00:03:39.478Z,29.58
2024-02-20T00:04:41.148Z,33.28
2024-02-20T00:05:42.876Z,24.85
2024-02-20T00:06:44.988Z,25.75
2024-02-20T00:07:46.903Z,26.13
2024-02-20T00:08:48.512Z,28.42
2024-02-20T00:09:50.233Z,24.63
2024-02-20T00:10:51.941Z,25.35
2024-02-20T00:11:53.614Z,23.60
2024-02-20T00:12:55.267Z,21.92
2024-02-20T00:13:59.804Z,22.50
2024-02-20T00:15:02.901Z,25.00
2024-02-20T00:16:05.980Z,24.08
2024-02-20T00:17:08.510Z,25.10
2024-02-20T00:18:11.431Z,25.30
2024-02-20T00:19:13.313Z,25.77
2024-02-20T00:20:14.956Z,22.00
2024-02-20T00:21:16.541Z,27.30
2024-02-20T00:22:18.150Z,26.77
2024-02-20T00:23:19.756Z,22.10
2024-02-20T00:24:21.313Z,23.08
2024-02-20T00:25:23.171Z,26.35
2024-02-20T00:26:25.743Z,25.60
2024-02-20T00:27:27.846Z,19.80
2024-02-20T00:28:29.534Z,23.63
2024-02-20T00:29:31.193Z,23.10
2024-02-20T00:30:32.779Z,24.27
2024-02-20T00:31:35.711Z,26.35
2024-02-20T00:32:38.090Z,25.13
2024-02-20T00:33:39.772Z,25.77
2024-02-20T00:34:41.379Z,23.48
2024-02-20T00:35:43.231Z,23.90
2024-02-20T00:36:44.777Z,23.45
2024-02-20T00:37:46.923Z,23.75
2024-02-20T00:38:48.489Z,26.77
2024-02-20T00:39:50.141Z,25.88
2024-02-20T00:40:51.823Z,23.70
2024-02-20T00:41:53.442Z,25.15
2024-02-20T00:42:55.023Z,29.63
2024-02-20T00:43:56.619Z,23.80
2024-02-20T00:45:02.449Z,27.75
2024-02-20T00:46:04.517Z,24.30
2024-02-20T00:47:10.938Z,25.83
2024-02-20T00:48:14.033Z,23.00
2024-02-20T00:49:15.833Z,26.25
2024-02-20T00:50:17.579Z,24.10
2024-02-20T00:51:20.952Z,25.85
2024-02-20T00:52:24.635Z,24.23
2024-02-20T00:53:26.245Z,25.58
2024-02-20T00:54:27.884Z,25.25
2024-02-20T00:55:29.601Z,25.58
2024-02-20T00:56:31.945Z,28.77
2024-02-20T00:57:33.548Z,24.05
2024-02-20T00:58:35.180Z,26.58
2024-02-20T00:59:37.009Z,24.73
2024-02-20T01:00:38.820Z,27.25
2024-02-20T01:01:40.575Z,25.60
2024-02-20T01:02:42.308Z,23.30
2024-02-20T01:03:44.570Z,25.52
2024-02-20T01:04:46.288Z,24.90
2024-02-20T01:05:48.076Z,24.77
2024-02-20T01:06:49.724Z,26.60
2024-02-20T01:07:51.332Z,29.63
2024-02-20T01:08:53.004Z,26.23
2024-02-20T01:09:54.672Z,25.02
2024-02-20T01:10:56.388Z,25.63
2024-02-20T01:11:57.984Z,26.42
2024-02-20T01:13:01.473Z,27.52
2024-02-20T01:14:03.240Z,27.02
2024-02-20T01:15:05.552Z,27.95
2024-02-20T01:16:08.023Z,27.50
2024-02-20T01:17:09.611Z,25.45
2024-02-20T01:18:11.354Z,26.38
2024-02-20T01:19:13.218Z,26.02
2024-02-20T01:20:14.914Z,25.80
2024-02-20T01:21:16.593Z,28.15
2024-02-20T01:22:18.205Z,27.75
2024-02-20T01:23:20.165Z,26.25
2024-02-20T01:24:21.805Z,25.30
2024-02-20T01:25:23.539Z,27.48
2024-02-20T01:26:25.115Z,24.55
2024-02-20T01:27:26.799Z,27.58
2024-02-20T01:28:28.528Z,24.35
2024-02-20T01:29:30.426Z,26.00
2024-02-20T01:30:32.412Z,24.80
2024-02-20T01:31:34.259Z,27.23
2024-02-20T01:32:35.965Z,25.50
2024-02-20T01:33:37.624Z,27.55
2024-02-20T01:34:39.522Z,27.15
2024-02-20T01:35:42.675Z,27.60
2024-02-20T01:36:44.276Z,26.70
2024-02-20T01:37:45.868Z,23.90
2024-02-20T01:38:47.699Z,24.65
2024-02-20T01:39:49.344Z,25.98
2024-02-20T01:40:50.938Z,27.50
2024-02-20T01:41:52.465Z,25.08
2024-02-20T01:43:01.250Z,24.25
2024-02-20T01:44:02.960Z,25.70
2024-02-20T01:45:05.061Z,26.13
2024-02-20T01:46:08.566Z,23.95
2024-02-20T01:47:10.166Z,23.88
2024-02-20T01:48:12.032Z,25.25
2024-02-20T01:49:14.186Z,22.45
2024-02-20T01:50:16.267Z,22.00
2024-02-20T01:51:20.174Z,26.67
2024-02-20T01:52:21.859Z,24.30
2024-02-20T01:53:23.772Z,25.02
2024-02-20T01:54:25.690Z,23.27
2024-02-20T01:55:28.086Z,21.05
2024-02-20T01:56:30.624Z,22.35
2024-02-20T01:57:32.698Z,21.23
2024-02-20T01:58:34.833Z,22.30
2024-02-20T01:59:36.681Z,21.30
2024-02-20T02:00:38.262Z,19.38
2024-02-20T02:01:40.089Z,22.27
2024-02-20T02:02:42.964Z,20.70
2024-02-20T02:03:44.668Z,20.92
2024-02-20T02:04:46.417Z,21.20
2024-02-20T02:05:48.360Z,21.63
2024-02-20T02:06:50.181Z,22.42
2024-02-20T02:07:51.917Z,21.88
2024-02-20T02:08:53.979Z,21.30
2024-02-20T02:09:55.599Z,21.13
2024-02-20T02:10:57.433Z,21.40
2024-02-20T02:11:59.110Z,23.17
2024-02-20T02:13:00.682Z,19.33
2024-02-20T02:14:02.320Z,22.77
2024-02-20T02:15:04.253Z,25.10
2024-02-20T02:16:06.101Z,22.00
2024-02-20T02:17:08.059Z,19.58
2024-02-20T02:18:09.731Z,18.02
2024-02-20T02:19:11.390Z,19.83
2024-02-20T02:20:13.136Z,20.65
2024-02-20T02:21:14.912Z,22.25
2024-02-20T02:22:16.539Z,21.73
2024-02-20T02:23:18.148Z,21.13
2024-02-20T02:24:19.734Z,19.67
2024-02-20T02:25:21.590Z,18.85
2024-02-20T02:26:23.815Z,18.88
2024-02-20T02:27:25.425Z,20.60
2024-02-20T02:28:27.174Z,22.15
2024-02-20T02:29:29.627Z,20.20
2024-02-20T02:30:31.170Z,21.60
2024-02-20T02:31:33.171Z,21.77
2024-02-20T02:32:34.929Z,23.30
2024-02-20T02:33:37.056Z,24.63
2024-02-20T02:34:38.729Z,20.85
2024-02-20T02:35:40.655Z,19.92
2024-02-20T02:36:42.234Z,22.60
2024-02-20T02:37:43.869Z,22.60
2024-02-20T02:38:45.508Z,23.58
2024-02-20T02:39:47.423Z,22.30
2024-02-20T02:40:48.984Z,22.40
2024-02-20T02:41:51.429Z,21.05
2024-02-20T02:42:53.149Z,22.13
2024-02-20T02:43:54.824Z,20.77
2024-02-20T02:44:56.364Z,21.58
2024-02-20T02:45:58.237Z,18.83
2024-02-20T02:46:59.981Z,20.50
2024-02-20T02:48:01.626Z,22.73
2024-02-20T02:49:03.358Z,22.42
2024-02-20T02:50:05.611Z,20.08
2024-02-20T02:51:09.795Z,22.45
2024-02-20T02:52:11.600Z,23.90
2024-02-20T02:53:13.515Z,22.33
2024-02-20T02:54:15.148Z,24.27
2024-02-20T02:55:17.498Z,21.92
2024-02-20T02:56:19.105Z,24.90
2024-02-20T02:57:20.668Z,22.95
2024-02-20T02:58:22.336Z,21.10
2024-02-20T02:59:24.145Z,22.13
2024-02-20T03:00:25.774Z,25.38
2024-02-20T03:01:27.766Z,24.60
2024-02-20T03:02:29.363Z,26.23
2024-02-20T03:03:31.035Z,24.98
2024-02-20T03:04:33.065Z,20.30
2024-02-20T03:05:37.566Z,23.58
2024-02-20T03:06:41.162Z,23.05
2024-02-20T03:07:42.757Z,24.15
2024-02-20T03:08:46.547Z,27.27
2024-02-20T03:09:48.136Z,25.75
2024-02-20T03:10:49.885Z,23.45
2024-02-20T03:11:51.583Z,23.40
2024-02-20T03:12:57.028Z,21.73
2024-02-20T03:13:59.356Z,25.95
2024-02-20T03:15:00.917Z,21.73
2024-02-20T03:16:03.648Z,22.48
2024-02-20T03:17:05.430Z,22.10
2024-02-20T03:18:07.957Z,23.20
2024-02-20T03:19:10.501Z,20.42
2024-02-20T03:20:16.508Z,23.10
2024-02-20T03:21:21.324Z,20.52
2024-02-20T03:22:24.591Z,25.20
2024-02-20T03:23:28.039Z,21.10
2024-02-20T03:24:29.947Z,20.88
2024-02-20T03:25:31.588Z,19.13
2024-02-20T03:26:33.174Z,21.40
2024-02-20T03:27:36.222Z,20.90
2024-02-20T03:28:37.809Z,19.80
2024-02-20T03:29:39.519Z,19.23
2024-02-20T03:30:42.274Z,19.58
2024-02-20T03:31:44.161Z,21.70
2024-02-20T03:32:45.882Z,21.00
2024-02-20T03:33:47.599Z,19.50
2024-02-20T03:34:49.283Z,20.83
2024-02-20T03:35:51.073Z,24.45
2024-02-20T03:36:52.768Z,20.35
2024-02-20T03:37:54.396Z,27.17
2024-02-20T03:38:55.936Z,21.75
2024-02-20T03:39:57.515Z,21.33
2024-02-20T03:40:59.185Z,22.33
2024-02-20T03:42:00.736Z,24.35
2024-02-20T03:43:04.839Z,21.80
2024-02-20T03:44:06.433Z,22.60
2024-02-20T03:45:08.338Z,20.55
2024-02-20T03:46:10.463Z,22.30
2024-02-20T03:47:12.091Z,23.52
2024-02-20T03:48:13.941Z,25.15
2024-02-20T03:49:15.760Z,23.90
2024-02-20T03:50:17.618Z,22.85
2024-02-20T03:51:19.583Z,23.83
2024-02-20T03:52:21.385Z,23.67
2024-02-20T03:53:22.926Z,23.00
2024-02-20T03:54:24.529Z,21.52
2024-02-20T03:55:26.337Z,19.73
2024-02-20T03:56:27.911Z,18.30
2024-02-20T03:57:29.458Z,21.35
2024-02-20T03:58:30.992Z,21.83
2024-02-20T03:59:33.142Z,21.90
2024-02-20T04:00:34.790Z,20.95
2024-02-20T04:01:36.592Z,17.63
2024-02-20T04:02:43.302Z,18.55
2024-02-20T04:03:45.024Z,20.02
2024-02-20T04:04:46.693Z,19.52
2024-02-20T04:05:49.185Z,21.85
2024-02-20T04:06:51.641Z,21.55
2024-02-20T04:07:53.450Z,19.23
2024-02-20T04:08:55.410Z,20.13
2024-02-20T04:09:57.035Z,19.98
2024-02-20T04:10:58.891Z,21.42
2024-02-20T04:12:00.607Z,19.85
2024-02-20T04:13:02.360Z,21.25
2024-02-20T04:14:04.379Z,20.13
2024-02-20T04:15:07.479Z,20.13
2024-02-20T04:16:09.156Z,20.60
2024-02-20T04:17:10.729Z,19.55
2024-02-20T04:18:12.296Z,21.10
2024-02-20T04:19:14.116Z,20.35
2024-02-20T04:20:15.943Z,21.75
2024-02-20T04:21:17.550Z,22.50
2024-02-20T04:22:19.174Z,25.10
2024-02-20T04:23:20.798Z,23.10
2024-02-20T04:24:22.374Z,23.65
2024-02-20T04:25:24.253Z,22.23
2024-02-20T04:26:26.592Z,21.15
2024-02-20T04:27:28.958Z,20.00
2024-02-20T04:28:36.366Z,21.00
2024-02-20T04:29:38.090Z,20.65
2024-02-20T04:30:45.608Z,21.65
2024-02-20T04:31:47.290Z,25.98
2024-02-20T04:32:48.940Z,25.10
2024-02-20T04:33:50.819Z,20.40
2024-02-20T04:34:52.661Z,23.05
2024-02-20T04:35:54.266Z,21.92
2024-02-20T04:36:55.877Z,22.60
2024-02-20T04:37:57.677Z,23.20
2024-02-20T04:38:59.287Z,21.05
2024-02-20T04:40:01.004Z,20.20
2024-02-20T04:41:02.619Z,21.50
2024-02-20T04:42:04.586Z,22.63
2024-02-20T04:43:07.430Z,23.98
2024-02-20T04:44:09.440Z,23.88
2024-02-20T04:45:11.504Z,24.48
2024-02-20T04:46:13.082Z,30.42
2024-02-20T04:47:14.752Z,26.48
2024-02-20T04:48:16.493Z,25.48
2024-02-20T04:49:18.342Z,26.02
2024-02-20T04:50:19.972Z,27.55
2024-02-20T04:51:21.576Z,32.17
2024-02-20T04:52:23.210Z,30.85
2024-02-20T04:53:25.516Z,26.98
2024-02-20T04:54:28.026Z,29.15
2024-02-20T04:55:30.134Z,27.10
2024-02-20T04:56:31.747Z,32.05
2024-02-20T04:57:33.341Z,30.38
2024-02-20T04:58:35.546Z,31.20
2024-02-20T04:59:37.305Z,30.58
2024-02-20T05:00:38.948Z,30.40
2024-02-20T05:01:40.652Z,36.83
2024-02-20T05:02:43.423Z,32.92
2024-02-20T05:03:47.152Z,30.85
2024-02-20T05:04:48.788Z,30.23
2024-02-20T05:05:50.365Z,31.63
2024-02-20T05:06:52.021Z,31.35
2024-02-20T05:07:53.692Z,29.10
2024-02-20T05:08:55.466Z,27.58
2024-02-20T05:09:57.084Z,27.40
2024-02-20T05:10:58.768Z,27.35
2024-02-20T05:12:00.954Z,23.73
2024-02-20T05:13:04.556Z,24.75
2024-02-20T05:14:06.167Z,25.15
2024-02-20T05:15:08.588Z,23.27
2024-02-20T05:16:10.424Z,23.67
2024-02-20T05:17:12.106Z,23.88
2024-02-20T05:18:13.864Z,24.08
2024-02-20T05:19:15.586Z,23.38
2024-02-20T05:20:17.827Z,22.35
2024-02-20T05:21:19.437Z,23.88
2024-02-20T05:22:21.357Z,21.52
2024-02-20T05:23:23.311Z,23.02
2024-02-20T05:24:24.916Z,27.70
2024-02-20T05:25:26.564Z,24.17
2024-02-20T05:26:28.156Z,25.65
2024-02-20T05:27:29.739Z,26.30
2024-02-20T05:28:31.438Z,25.50
2024-02-20T05:29:33.112Z,22.55
2024-02-20T05:30:37.242Z,25.58
2024-02-20T05:31:38.907Z,27.50
2024-02-20T05:32:40.666Z,30.20
2024-02-20T05:33:42.383Z,23.90
2024-02-20T05:34:44.337Z,24.92
2024-02-20T05:35:46.329Z,24.92
2024-02-20T05:36:47.956Z,26.85
2024-02-20T05:37:49.642Z,25.02
2024-02-20T05:38:51.350Z,22.77
2024-02-20T05:39:52.990Z,24.00
2024-02-20T05:40:56.168Z,24.10
2024-02-20T05:41:58.016Z,21.75
2024-02-20T05:42:59.631Z,24.92
2024-02-20T05:44:02.060Z,21.52
2024-02-20T05:45:03.953Z,22.83
2024-02-20T05:46:05.595Z,27.15
2024-02-20T05:47:07.263Z,23.63
2024-02-20T05:48:09.169Z,23.08
2024-02-20T05:49:11.014Z,22.83
2024-02-20T05:50:12.988Z,22.80
2024-02-20T05:51:16.776Z,23.30
2024-02-20T05:52:18.845Z,25.75
2024-02-20T05:53:20.461Z,28.88
2024-02-20T05:54:22.263Z,29.08
2024-02-20T05:55:23.985Z,29.00
2024-02-20T05:56:26.038Z,26.30
2024-02-20T05:57:27.621Z,26.35
2024-02-20T05:58:29.183Z,29.92
2024-02-20T05:59:31.610Z,29.88
2024-02-20T06:00:33.335Z,27.70
2024-02-20T06:01:35.134Z,26.98
2024-02-20T06:02:36.782Z,27.70
2024-02-20T06:03:39.238Z,27.30
2024-02-20T06:04:41.032Z,31.55
2024-02-20T06:05:42.803Z,26.33
2024-02-20T06:06:44.644Z,29.70
2024-02-20T06:07:46.290Z,28.52
2024-02-20T06:08:48.103Z,27.90
2024-02-20T06:09:49.996Z,29.67
2024-02-20T06:10:51.871Z,31.75
2024-02-20T06:11:53.533Z,28.05
2024-02-20T06:12:55.149Z,26.95
2024-02-20T06:13:56.824Z,28.50
2024-02-20T06:14:58.450Z,28.73
2024-02-20T06:16:00.087Z,28.80
2024-02-20T06:17:01.660Z,30.42
2024-02-20T06:18:03.422Z,29.50
2024-02-20T06:19:05.138Z,28.52
2024-02-20T06:20:08.680Z,29.00
2024-02-20T06:21:10.575Z,28.23
2024-02-20T06:22:12.149Z,33.35
2024-02-20T06:23:14.238Z,28.25
2024-02-20T06:24:15.883Z,27.80
2024-02-20T06:25:17.753Z,27.08
2024-02-20T06:26:20.057Z,29.13
2024-02-20T06:27:21.880Z,31.73
2024-02-20T06:28:23.695Z,29.52
2024-02-20T06:29:25.733Z,31.63
2024-02-20T06:30:27.343Z,29.52
2024-02-20T06:31:28.945Z,26.58
2024-02-20T06:32:33.342Z,28.40
2024-02-20T06:33:37.023Z,29.38
2024-02-20T06:34:40.436Z,32.17
2024-02-20T06:35:43.058Z,29.35
2024-02-20T06:36:44.716Z,30.17
2024-02-20T06:37:46.258Z,29.73
2024-02-20T06:38:47.837Z,31.02
2024-02-20T06:39:51.187Z,28.38
2024-02-20T06:40:53.812Z,28.17
2024-02-20T06:41:55.427Z,29.77
2024-02-20T06:42:56.966Z,30.67
2024-02-20T06:43:58.561Z,26.90
2024-02-20T06:45:00.674Z,27.58
2024-02-20T06:46:02.863Z,26.17
2024-02-20T06:47:04.842Z,29.10
2024-02-20T06:48:06.746Z,28.45
2024-02-20T06:49:08.540Z,26.05
2024-02-20T06:50:14.094Z,29.17
2024-02-20T06:51:15.907Z,27.23
2024-02-20T06:52:17.627Z,30.58
2024-02-20T06:53:19.206Z,28.13
2024-02-20T06:54:20.816Z,26.67
2024-02-20T06:55:22.522Z,29.27
2024-02-20T06:56:24.302Z,28.67
2024-02-20T06:57:25.858Z,27.75
2024-02-20T06:58:28.965Z,30.05
2024-02-20T06:59:30.755Z,27.95
2024-02-20T07:00:32.503Z,30.30
2024-02-20T07:01:34.429Z,27.75
2024-02-20T07:02:36.108Z,26.60
2024-02-20T07:03:37.751Z,30.95
2024-02-20T07:04:41.704Z,31.25
2024-02-20T07:05:43.828Z,33.53
2024-02-20T07:06:45.670Z,27.45
2024-02-20T07:07:47.387Z,28.60
2024-02-20T07:08:48.993Z,28.48
2024-02-20T07:09:50.537Z,28.85
2024-02-20T07:10:52.532Z,26.95
2024-02-20T07:11:54.341Z,29.58
2024-02-20T07:12:58.867Z,26.65
2024-02-20T07:14:00.507Z,28.35
2024-02-20T07:15:03.598Z,31.25
2024-02-20T07:16:06.585Z,29.15
2024-02-20T07:17:08.185Z,25.27
2024-02-20T07:18:09.763Z,29.92
2024-02-20T07:19:12.159Z,29.02
2024-02-20T07:20:14.340Z,30.05
2024-02-20T07:21:16.117Z,30.75
2024-02-20T07:22:17.714Z,33.63
2024-02-20T07:23:19.404Z,27.17
2024-02-20T07:24:21.668Z,27.20
2024-02-20T07:25:24.161Z,27.70
2024-02-20T07:26:28.320Z,29.08
2024-02-20T07:27:29.958Z,29.25
2024-02-20T07:28:32.484Z,28.15
2024-02-20T07:29:34.176Z,27.83
2024-02-20T07:30:35.787Z,30.35
2024-02-20T07:31:37.780Z,29.55
2024-02-20T07:32:41.315Z,28.80
2024-02-20T07:33:48.424Z,36.03
2024-02-20T07:35:54.481Z,31.33
2024-02-20T07:36:56.192Z,31.30
2024-02-20T07:37:57.978Z,30.83
2024-02-20T07:38:59.572Z,32.08
2024-02-20T07:40:01.315Z,29.65
2024-02-20T07:41:04.674Z,29.92
2024-02-20T07:42:08.576Z,29.17
2024-02-20T07:43:10.241Z,32.25
2024-02-20T07:44:11.997Z,36.45
2024-02-20T07:45:13.805Z,34.20
2024-02-20T07:46:15.893Z,34.95
2024-02-20T07:47:17.495Z,36.58
2024-02-20T07:48:19.230Z,33.33
2024-02-20T07:49:21.270Z,31.50
2024-02-20T07:50:26.550Z,33.83
2024-02-20T07:51:29.334Z,32.67
2024-02-20T07:52:31.135Z,32.67
2024-02-20T07:53:32.907Z,33.40
2024-02-20T07:54:34.435Z,33.80
2024-02-20T07:55:41.457Z,36.25
2024-02-20T07:56:43.872Z,40.38
2024-02-20T07:57:45.489Z,34.13
2024-02-20T07:58:47.099Z,42.50
2024-02-20T07:59:48.939Z,38.58
2024-02-20T08:00:50.722Z,39.00
2024-02-20T08:01:53.988Z,33.08
2024-02-20T08:02:55.826Z,36.10
2024-02-20T08:03:58.214Z,35.70
2024-02-20T08:05:00.061Z,35.25
2024-02-20T08:06:01.729Z,32.30
2024-02-20T08:07:03.951Z,33.22
2024-02-20T08:08:06.660Z,36.67
2024-02-20T08:09:08.437Z,36.80
2024-02-20T08:10:13.197Z,36.45
2024-02-20T08:11:15.621Z,39.28
2024-02-20T08:12:17.859Z,36.08
2024-02-20T08:13:23.137Z,47.08
2024-02-20T08:14:26.925Z,41.38
2024-02-20T08:15:29.079Z,35.40
2024-02-20T08:16:32.781Z,37.25
2024-02-20T08:17:34.779Z,36.03
2024-02-20T08:18:36.414Z,35.45
2024-02-20T08:19:38.244Z,33.10
2024-02-20T08:20:39.886Z,31.85
2024-02-20T08:21:41.492Z,34.17
2024-02-20T08:22:44.086Z,34.88
2024-02-20T08:23:45.887Z,36.70
2024-02-20T08:24:47.521Z,33.33
2024-02-20T08:25:49.139Z,29.60
2024-02-20T08:26:51.171Z,31.55
2024-02-20T08:27:52.796Z,35.80
2024-02-20T08:28:54.863Z,34.05
2024-02-20T08:29:56.583Z,34.05
2024-02-20T08:30:58.735Z,38.03
2024-02-20T08:32:00.342Z,36.15
2024-02-20T08:33:01.996Z,33.65
2024-02-20T08:34:03.775Z,34.10
2024-02-20T08:35:06.252Z,30.83
2024-02-20T08:36:08.122Z,34.80
2024-02-20T08:37:09.913Z,34.85
2024-02-20T08:38:11.493Z,32.58
2024-02-20T08:39:13.366Z,34.00
2024-02-20T08:40:15.197Z,33.58
2024-02-20T08:41:16.809Z,34.30
2024-02-20T08:42:19.388Z,30.67
2024-02-20T08:43:21.186Z,34.75
2024-02-20T08:44:25.142Z,35.45
2024-02-20T08:45:26.774Z,34.38
2024-02-20T08:46:28.478Z,36.58
2024-02-20T08:47:30.309Z,33.92
2024-02-20T08:48:32.020Z,35.15
2024-02-20T08:49:33.861Z,35.55
2024-02-20T08:50:35.580Z,32.67
2024-02-20T08:51:37.193Z,30.95
2024-02-20T08:52:38.947Z,31.73
2024-02-20T08:53:40.581Z,34.70
2024-02-20T08:54:42.133Z,35.33
2024-02-20T08:55:43.923Z,35.50
2024-02-20T08:56:45.583Z,30.98
2024-02-20T08:57:47.277Z,32.72
2024-02-20T08:58:55.268Z,31.17
2024-02-20T08:59:56.809Z,31.95
2024-02-20T09:01:00.007Z,31.90
2024-02-20T09:02:04.963Z,33.72
2024-02-20T09:03:06.897Z,32.38
2024-02-20T09:04:09.729Z,32.45
2024-02-20T09:05:11.981Z,34.13
2024-02-20T09:06:13.890Z,33.35
2024-02-20T09:07:15.616Z,33.50
2024-02-20T09:08:17.271Z,34.10
2024-02-20T09:09:19.361Z,34.50
2024-02-20T09:10:21.210Z,32.25
2024-02-20T09:11:22.851Z,35.03
2024-02-20T09:12:24.489Z,37.72
2024-02-20T09:13:26.056Z,29.90
2024-02-20T09:14:27.700Z,29.73
2024-02-20T09:15:29.322Z,31.25
2024-02-20T09:16:31.023Z,33.45
2024-02-20T09:17:32.797Z,35.55
2024-02-20T09:18:35.617Z,31.08
2024-02-20T09:19:37.319Z,31.00
2024-02-20T09:20:39.015Z,33.20
2024-02-20T09:21:41.294Z,34.33
2024-02-20T09:22:43.061Z,32.67
2024-02-20T09:23:45.057Z,30.90
2024-02-20T09:24:46.841Z,31.30
2024-02-20T09:25:48.450Z,28.63
2024-02-20T09:26:50.135Z,32.47
2024-02-20T09:27:51.770Z,32.20
2024-02-20T09:28:53.482Z,33.53
2024-02-20T09:29:55.228Z,30.63
2024-02-20T09:30:56.928Z,36.03
2024-02-20T09:32:02.077Z,32.38
2024-02-20T09:33:04.426Z,31.20
2024-02-20T09:34:06.095Z,34.47
2024-02-20T09:35:08.669Z,29.50
2024-02-20T09:36:10.994Z,29.33
2024-02-20T09:37:12.695Z,32.92
2024-02-20T09:38:17.259Z,31.17
2024-02-20T09:39:22.883Z,31.73
2024-02-20T09:40:24.580Z,31.10
2024-02-20T09:41:27.674Z,29.90
2024-02-20T09:42:31.630Z,29.35
2024-02-20T09:43:34.112Z,31.80
2024-02-20T09:44:40.463Z,28.48
2024-02-20T09:45:43.536Z,29.35
2024-02-20T09:46:52.701Z,30.85
2024-02-20T09:47:56.492Z,32.15
2024-02-20T09:49:01.416Z,30.67
2024-02-20T09:50:03.682Z,29.45
2024-02-20T09:51:06.805Z,27.17
2024-02-20T09:52:09.540Z,25.92
2024-02-20T09:53:14.348Z,29.10
2024-02-20T09:54:18.118Z,30.10
2024-02-20T09:55:20.083Z,28.02
2024-02-20T09:56:22.581Z,30.52
2024-02-20T09:57:25.064Z,27.67
2024-02-20T09:58:29.905Z,26.67
2024-02-20T09:59:36.235Z,24.67
2024-02-20T10:00:37.955Z,25.33
2024-02-20T10:01:40.083Z,27.48
2024-02-20T10:02:45.557Z,28.35
2024-02-20T10:03:49.116Z,28.38
2024-02-20T10:04:51.289Z,26.65
2024-02-20T10:05:53.969Z,28.30
2024-02-20T10:06:55.787Z,25.00
2024-02-20T10:08:02.108Z,28.33
2024-02-20T10:09:04.160Z,29.77
2024-02-20T10:10:10.452Z,26.45
2024-02-20T10:11:12.200Z,26.67
2024-02-20T10:12:24.740Z,29.73
2024-02-20T10:13:26.586Z,31.63
2024-02-20T10:14:29.002Z,28.88
2024-02-20T10:15:30.804Z,29.80
2024-02-20T10:16:32.526Z,27.52
2024-02-20T10:17:35.073Z,24.70
2024-02-20T10:18:36.686Z,27.75
2024-02-20T10:19:38.374Z,24.38
2024-02-20T10:20:40.312Z,26.92
2024-02-20T10:21:51.710Z,25.55
2024-02-20T10:23:04.037Z,24.42
2024-02-20T10:24:11.966Z,25.02
2024-02-20T10:25:19.425Z,26.48
2024-02-20T10:26:21.022Z,26.63
2024-02-20T10:27:22.711Z,26.60
2024-02-20T10:28:25.397Z,29.90
2024-02-20T10:29:29.422Z,27.67
2024-02-20T10:30:31.661Z,23.60
2024-02-20T10:31:34.229Z,23.20
2024-02-20T10:32:37.723Z,26.10
2024-02-20T10:33:39.524Z,25.50
2024-02-20T10:34:41.425Z,25.17
2024-02-20T10:35:44.334Z,23.60
2024-02-20T10:36:46.168Z,25.38
2024-02-20T10:38:01.939Z,23.85
2024-02-20T10:39:07.963Z,26.58
2024-02-20T10:40:21.926Z,26.50
2024-02-20T10:41:29.151Z,26.50
2024-02-20T10:42:38.193Z,21.02
2024-02-20T10:43:40.841Z,23.55
2024-02-20T10:44:44.128Z,23.55
2024-02-20T10:45:52.290Z,23.70
2024-02-20T10:46:58.335Z,24.77
2024-02-20T10:48:04.089Z,23.67
2024-02-20T10:49:28.770Z,21.17
2024-02-20T10:50:34.492Z,20.80
2024-02-20T10:51:37.896Z,20.88
2024-02-20T10:52:40.789Z,17.85
2024-02-20T10:53:45.686Z,15.02
2024-02-20T10:54:56.295Z,13.50
2024-02-20T10:56:05.887Z,13.90
2024-02-20T10:57:08.530Z,13.80
2024-02-20T10:58:17.719Z,12.18
2024-02-20T10:59:22.079Z,11.20
2024-02-20T11:00:24.279Z,13.52
2024-02-20T11:01:27.724Z,13.40
2024-02-20T11:02:29.883Z,11.75
2024-02-20T11:03:41.360Z,9.95
2024-02-20T11:04:48.089Z,10.05
2024-02-20T11:05:53.336Z,10.73
2024-02-20T11:06:56.390Z,9.20
2024-02-20T11:08:09.188Z,10.48
2024-02-20T11:09:12.411Z,9.10
2024-02-20T11:10:19.216Z,10.40
2024-02-20T11:11:25.090Z,10.82
2024-02-20T11:12:35.393Z,11.85
2024-02-20T11:13:38.003Z,11.43
2024-02-20T11:14:39.658Z,11.25
2024-02-20T11:15:41.298Z,9.27
2024-02-20T11:16:50.705Z,9.93
2024-02-20T11:17:53.819Z,9.27
2024-02-20T11:18:55.866Z,11.30
2024-02-20T11:20:07.941Z,13.82
2024-02-20T11:21:09.503Z,11.93
2024-02-20T11:22:11.115Z,10.05
2024-02-20T11:23:13.305Z,9.35
2024-02-20T11:24:19.302Z,14.20
2024-02-20T11:25:21.736Z,11.07
2024-02-20T11:26:31.786Z,13.23
2024-02-20T11:27:44.357Z,10.60
2024-02-20T11:28:46.406Z,14.27
2024-02-20T11:29:48.074Z,11.05
2024-02-20T11:30:49.773Z,9.57
2024-02-20T11:31:51.488Z,9.68
2024-02-20T11:32:55.793Z,12.10
2024-02-20T11:33:59.220Z,8.32
2024-02-20T11:35:01.102Z,8.85
2024-02-20T11:36:05.917Z,9.20
2024-02-20T11:37:10.463Z,9.00
2024-02-20T11:38:14.375Z,9.38
2024-02-20T11:39:17.824Z,9.30
2024-02-20T11:40:30.579Z,8.10
2024-02-20T11:41:35.230Z,7.55
2024-02-20T11:42:39.285Z,8.80
2024-02-20T11:43:42.456Z,10.15
2024-02-20T11:44:44.188Z,9.45
2024-02-20T11:45:45.916Z,13.38
2024-02-20T11:46:56.963Z,11.68
2024-02-20T11:48:07.054Z,9.45
2024-02-20T11:49:08.856Z,13.07
2024-02-20T11:50:12.399Z,9.20
2024-02-20T11:51:18.671Z,7.20
2024-02-20T11:52:20.476Z,9.02
2024-02-20T11:53:22.485Z,8.10
2024-02-20T11:54:24.042Z,9.80
2024-02-20T11:55:26.530Z,10.35
2024-02-20T11:56:29.273Z,7.97
2024-02-20T11:57:30.923Z,9.25
2024-02-20T11:58:32.590Z,10.20
2024-02-20T11:59:34.352Z,11.70
2024-02-20T12:00:39.877Z,11.85
2024-02-20T12:01:41.762Z,9.88
2024-02-20T12:02:43.692Z,9.57
2024-02-20T12:03:45.667Z,11.45
2024-02-20T12:04:57.606Z,10.32
2024-02-20T12:06:04.450Z,10.55
2024-02-20T12:07:10.879Z,8.23
2024-02-20T12:08:17.664Z,9.55
2024-02-20T12:09:19.535Z,9.20
2024-02-20T12:10:22.224Z,7.60
2024-02-20T12:11:28.789Z,12.88
2024-02-20T12:12:31.572Z,8.80
2024-02-20T12:13:33.415Z,9.63
2024-02-20T12:14:35.053Z,10.00
2024-02-20T12:15:40.286Z,8.95
2024-02-20T12:16:41.956Z,12.02
2024-02-20T12:17:45.738Z,11.95
2024-02-20T12:18:51.705Z,11.57
2024-02-20T12:20:05.260Z,9.15
2024-02-20T12:21:08.713Z,10.00
2024-02-20T12:22:10.951Z,8.77
2024-02-20T12:23:19.772Z,8.15
2024-02-20T12:24:24.565Z,14.47
2024-02-20T12:25:26.332Z,9.45
2024-02-20T12:26:28.688Z,9.40
2024-02-20T12:27:30.408Z,8.43
2024-02-20T12:28:32.282Z,8.63
2024-02-20T12:29:36.047Z,10.52
2024-02-20T12:30:41.540Z,9.75
2024-02-20T12:31:43.198Z,10.48
2024-02-20T12:32:44.928Z,8.25
2024-02-20T12:33:46.769Z,9.63
2024-02-20T12:34:52.443Z,9.32
2024-02-20T12:35:58.802Z,8.75
2024-02-20T12:37:00.656Z,10.02
2024-02-20T12:38:02.246Z,8.07
2024-02-20T12:39:03.866Z,6.53
2024-02-20T12:40:10.090Z,8.45
2024-02-20T12:41:12.054Z,6.43
2024-02-20T12:42:14.038Z,8.13
2024-02-20T12:43:15.596Z,7.43
2024-02-20T12:44:17.124Z,7.28
2024-02-20T12:45:18.724Z,7.50
2024-02-20T12:46:20.576Z,7.97
2024-02-20T12:47:22.213Z,5.88
2024-02-20T12:48:24.039Z,6.18
2024-02-20T12:49:25.838Z,6.60
2024-02-20T12:50:27.513Z,6.25
2024-02-20T12:51:30.130Z,6.07
2024-02-20T12:52:31.864Z,5.85
2024-02-20T12:53:35.290Z,6.85
2024-02-20T12:54:38.823Z,5.43
2024-02-20T12:55:42.094Z,4.78
2024-02-20T12:56:44.402Z,6.50
2024-02-20T12:57:45.991Z,7.03
2024-02-20T12:58:48.072Z,5.00
2024-02-20T12:59:49.884Z,5.53
2024-02-20T13:00:51.502Z,5.15
2024-02-20T13:01:53.156Z,6.03
2024-02-20T13:02:58.835Z,5.53
2024-02-20T13:04:00.689Z,6.10
2024-02-20T13:05:02.566Z,4.85
2024-02-20T13:06:04.664Z,5.25
2024-02-20T13:07:06.340Z,4.72
2024-02-20T13:08:08.994Z,5.28
2024-02-20T13:09:11.725Z,6.35
2024-02-20T13:10:14.157Z,5.97
2024-02-20T13:11:18.618Z,5.55
2024-02-20T13:12:20.301Z,5.07
2024-02-20T13:13:21.883Z,7.90
2024-02-20T13:14:23.515Z,6.10
2024-02-20T13:15:25.498Z,3.70
2024-02-20T13:16:27.202Z,7.10
2024-02-20T13:17:28.865Z,4.13
2024-02-20T13:18:30.641Z,5.82
2024-02-20T13:19:32.504Z,5.35
2024-02-20T13:20:34.459Z,6.65
2024-02-20T13:21:39.675Z,4.75
2024-02-20T13:22:41.356Z,4.90
2024-02-20T13:23:43.538Z,6.95
2024-02-20T13:24:45.229Z,6.28
2024-02-20T13:25:48.310Z,4.03
2024-02-20T13:26:54.441Z,6.47
2024-02-20T13:27:56.628Z,5.28
2024-02-20T13:28:58.285Z,5.57
2024-02-20T13:29:59.922Z,4.30
2024-02-20T13:31:02.003Z,7.45